Saint Benedict, Louisiana
Current Conditions -  °F | °C
As of 5:53 AM on Monday 22 Dec 2014 (Local Time) from KASD Reporting Station
Haze Haze  
Wind Chill: 14°   Ceiling: 600
Heat Index: 14°   Visibility: 5mi
Dew Point: 13°   Wind: 0mph
Humidity: 93%   Direction: NA
Pressure: 29.86"   Gusts: NA
Location:  30.53°N, 90.11°W
Report Text: KASD 221153Z AUTO 00000KT 5SM BR OVC006 14/13 A2986 RMK AO2 SLP112 60000 T01440133 10144 20128 55005
Loading
Personal Weather Stations






























Interactive Weather Map New forecast layout! Learn more

10-Day Weather Forecast

Advertisements
Track Severe Weather on mobile